Enter the Airport ICAO Code

Search by Airport or City

Current Weather

LELC | Murcia–San Javier Airport

Murcia, Region of Murcia, Spain

Last Update 9 Minutes Ago

Temperature of 08 ºC

Light to Moderate Winds from West

Temperature

08 ºC

Dew Point Temperature

02 ºC Below Zero

Relative Humidity

49.24 %

Wind Direction

West (260º, Without Significant Variations)

Wind Velocity

13 km/h (07 kt)

Gusts

None

Visibility

Reduced to 9.0 Kilometers

Sea Level Pressure

1009 hPa (Hectopascals)

Layers of Clouds

None

METAR LELC 052200Z AUTO 26007KT 9000 NCD 08/M02 Q1009

Weather Forecast

LELC | Murcia–San Javier Airport

Murcia, Region of Murcia, Spain

Forecast valid for the next 20 Hours

From now on it is expected:

Clear Sky

Light to Moderate Winds from SouthWest

In 10 to 12 hours it is expected the begining of:

Moderate Winds from NorthWest

In 12 hours it is expected the begining of 8 hours with intermittent periods of:

Moderate Winds from NorthWest with Gusts

Maximum Temperature

16 ºC in 16 Hours

Minimum Temperature

05 ºC in 8 Hours

TAF LELC 051700Z 0518/0618 24007KT CAVOK TX16/0614Z TN05/0606Z BECMG 0608/0610 30015KT PROB40 TEMPO 0610/0618 30015G25KT